createdAt,value
2018-12-21T00:01:22.033Z,7.40
2018-12-21T00:03:49.159Z,7.50
2018-12-21T00:06:16.322Z,7.50
2018-12-21T00:08:43.434Z,7.40
2018-12-21T00:11:10.567Z,7.40
2018-12-21T00:13:37.973Z,7.40
2018-12-21T00:16:05.101Z,7.40
2018-12-21T00:18:32.213Z,7.40
2018-12-21T00:20:59.338Z,7.30
2018-12-21T00:23:26.486Z,7.20
2018-12-21T00:25:53.629Z,7.20
2018-12-21T00:28:20.806Z,7.20
2018-12-21T00:30:47.496Z,7.10
2018-12-21T00:33:20.354Z,7.10
2018-12-21T00:35:53.227Z,7.10
2018-12-21T00:38:26.303Z,7.10
2018-12-21T00:40:59.371Z,7.10
2018-12-21T00:43:31.390Z,7.10
2018-12-21T00:46:01.879Z,7.10
2018-12-21T00:48:35.903Z,7.10
2018-12-21T00:51:03.759Z,7.10
2018-12-21T00:53:31.088Z,7.10
2018-12-21T00:55:58.225Z,7.20
2018-12-21T00:58:25.841Z,7.20
2018-12-21T01:00:52.969Z,7.20
2018-12-21T01:03:20.308Z,7.20
2018-12-21T01:05:47.559Z,7.20
2018-12-21T01:08:14.938Z,7.20
2018-12-21T01:10:42.311Z,7.10
2018-12-21T01:13:09.569Z,7.20
2018-12-21T01:15:36.715Z,7.10
2018-12-21T01:18:04.031Z,7.20
2018-12-21T01:20:31.207Z,7.20
2018-12-21T01:22:58.318Z,7.10
2018-12-21T01:25:25.453Z,7.10
2018-12-21T01:27:52.748Z,7.00
2018-12-21T01:30:19.990Z,7.00
2018-12-21T01:32:47.125Z,7.10
2018-12-21T01:35:14.267Z,7.10
2018-12-21T01:37:41.401Z,7.10
2018-12-21T01:40:08.649Z,7.10
2018-12-21T01:42:35.766Z,7.10
2018-12-21T01:45:03.475Z,7.10
2018-12-21T01:47:30.875Z,7.00
2018-12-21T01:49:58.123Z,7.00
2018-12-21T01:52:25.370Z,7.00
2018-12-21T01:54:52.637Z,7.10
2018-12-21T01:57:19.929Z,7.10
2018-12-21T01:59:47.081Z,7.20
2018-12-21T02:02:14.492Z,7.20
2018-12-21T02:04:41.619Z,7.20
2018-12-21T02:07:08.888Z,7.30
2018-12-21T02:09:36.042Z,7.30
2018-12-21T02:12:03.411Z,7.30
2018-12-21T02:14:30.703Z,7.30
2018-12-21T02:16:57.868Z,7.30
2018-12-21T02:19:25.028Z,7.40
2018-12-21T02:21:55.994Z,7.40
2018-12-21T02:24:21.524Z,7.40
2018-12-21T02:26:48.653Z,7.40
2018-12-21T02:29:15.782Z,7.30
2018-12-21T02:31:42.932Z,7.30
2018-12-21T02:34:10.160Z,7.40
2018-12-21T02:36:37.318Z,7.30
2018-12-21T02:39:05.888Z,7.30
2018-12-21T02:41:33.211Z,7.30
2018-12-21T02:44:00.462Z,7.20
2018-12-21T02:46:27.719Z,7.10
2018-12-21T02:48:54.847Z,7.20
2018-12-21T02:51:22.582Z,7.10
2018-12-21T02:53:49.725Z,7.10
2018-12-21T02:56:16.873Z,7.00
2018-12-21T02:58:44.016Z,7.00
2018-12-21T03:01:11.167Z,6.90
2018-12-21T03:03:38.418Z,6.90
2018-12-21T03:06:05.567Z,6.90
2018-12-21T03:08:32.683Z,6.90
2018-12-21T03:10:59.915Z,6.90
2018-12-21T03:13:27.030Z,6.90
2018-12-21T03:15:54.248Z,6.90
2018-12-21T03:18:21.712Z,6.90
2018-12-21T03:20:48.871Z,6.90
2018-12-21T03:23:15.990Z,6.80
2018-12-21T03:25:43.163Z,6.80
2018-12-21T03:28:10.306Z,6.80
2018-12-21T03:30:37.457Z,6.80
2018-12-21T03:33:04.811Z,6.90
2018-12-21T03:35:32.012Z,6.90
2018-12-21T03:37:59.142Z,6.80
2018-12-21T03:40:26.385Z,6.80
2018-12-21T03:42:53.646Z,6.80
2018-12-21T03:45:20.812Z,6.80
2018-12-21T03:47:48.054Z,6.80
2018-12-21T03:50:15.178Z,6.90
2018-12-21T03:52:42.323Z,6.90
2018-12-21T03:55:09.577Z,6.90
2018-12-21T03:57:36.719Z,6.90
2018-12-21T04:00:05.555Z,6.90
2018-12-21T04:02:32.705Z,7.00
2018-12-21T04:04:59.835Z,7.00
2018-12-21T04:07:26.984Z,7.20
2018-12-21T04:09:54.127Z,7.20
2018-12-21T04:12:21.261Z,7.20
2018-12-21T04:14:48.380Z,7.20
2018-12-21T04:17:15.755Z,7.20
2018-12-21T04:19:42.891Z,7.20
2018-12-21T04:22:10.042Z,7.20
2018-12-21T04:24:37.163Z,7.20
2018-12-21T04:27:04.298Z,7.20
2018-12-21T04:29:38.297Z,7.20
2018-12-21T04:32:05.644Z,7.20
2018-12-21T04:34:32.774Z,7.20
2018-12-21T04:37:00.937Z,7.20
2018-12-21T04:39:28.165Z,7.30
2018-12-21T04:41:55.291Z,7.30
2018-12-21T04:44:22.540Z,7.40
2018-12-21T04:46:49.802Z,7.40
2018-12-21T04:49:17.044Z,7.40
2018-12-21T04:51:44.358Z,7.30
2018-12-21T04:54:11.607Z,7.30
2018-12-21T04:56:38.982Z,7.30
2018-12-21T04:59:06.247Z,7.30
2018-12-21T05:01:33.589Z,7.30
2018-12-21T05:04:00.735Z,7.20
2018-12-21T05:06:27.957Z,7.20
2018-12-21T05:08:55.122Z,7.30
2018-12-21T05:11:22.307Z,7.30
2018-12-21T05:13:49.510Z,7.20
2018-12-21T05:16:16.643Z,7.20
2018-12-21T05:18:43.777Z,7.10
2018-12-21T05:21:10.954Z,7.00
2018-12-21T05:23:38.098Z,7.00
2018-12-21T05:26:05.252Z,6.90
2018-12-21T05:28:32.382Z,6.80
2018-12-21T05:30:59.724Z,6.80
2018-12-21T05:33:26.957Z,6.80
2018-12-21T05:35:54.575Z,6.90
2018-12-21T05:38:21.730Z,6.90
2018-12-21T05:40:48.874Z,6.90
2018-12-21T05:43:16.003Z,6.90
2018-12-21T05:45:43.178Z,6.90
2018-12-21T05:48:10.362Z,6.80
2018-12-21T05:50:37.589Z,6.80
2018-12-21T05:53:04.756Z,6.80
2018-12-21T05:55:31.886Z,6.80
2018-12-21T05:57:59.024Z,6.80
2018-12-21T06:00:26.166Z,6.80
2018-12-21T06:02:53.286Z,6.80
2018-12-21T06:05:20.607Z,6.80
2018-12-21T06:07:47.726Z,6.90
2018-12-21T06:10:14.979Z,6.90
2018-12-21T06:12:42.141Z,6.80
2018-12-21T06:15:09.272Z,6.80
2018-12-21T06:17:36.572Z,6.80
2018-12-21T06:20:04.211Z,6.90
2018-12-21T06:22:31.382Z,6.80
2018-12-21T06:24:58.527Z,6.90
2018-12-21T06:27:25.794Z,6.90
2018-12-21T06:29:52.920Z,6.90
2018-12-21T06:32:20.199Z,6.90
2018-12-21T06:34:47.460Z,6.80
2018-12-21T06:37:14.623Z,6.90
2018-12-21T06:39:42.462Z,6.90
2018-12-21T06:42:09.590Z,6.90
2018-12-21T06:44:36.727Z,6.90
2018-12-21T06:47:04.096Z,7.00
2018-12-21T06:50:35.198Z,7.00
2018-12-21T06:53:02.591Z,7.00
2018-12-21T06:55:29.856Z,7.10
2018-12-21T06:57:57.001Z,7.00
2018-12-21T07:00:24.199Z,7.10
2018-12-21T07:02:51.407Z,7.10
2018-12-21T07:05:18.594Z,7.10
2018-12-21T07:07:45.847Z,7.00
2018-12-21T07:10:13.178Z,7.10
2018-12-21T07:12:40.430Z,7.00
2018-12-21T07:15:08.372Z,7.10
2018-12-21T07:17:35.498Z,7.10
2018-12-21T07:20:03.206Z,7.20
2018-12-21T07:22:30.354Z,7.20
2018-12-21T07:24:57.501Z,7.10
2018-12-21T07:27:24.658Z,7.20
2018-12-21T07:29:51.824Z,7.10
2018-12-21T07:32:19.139Z,7.20
2018-12-21T07:34:46.260Z,7.20
2018-12-21T07:37:13.574Z,7.20
2018-12-21T07:39:40.829Z,7.10
2018-12-21T07:42:07.974Z,7.20
2018-12-21T07:44:35.250Z,7.20
2018-12-21T07:47:02.387Z,7.20
2018-12-21T07:49:29.624Z,7.20
2018-12-21T07:51:56.794Z,7.20
2018-12-21T07:54:23.914Z,7.30
2018-12-21T07:56:51.055Z,7.30
2018-12-21T07:59:18.508Z,7.40
2018-12-21T08:01:45.778Z,7.30
2018-12-21T08:04:13.022Z,7.30
2018-12-21T08:06:40.382Z,7.30
2018-12-21T08:09:07.652Z,7.30
2018-12-21T08:11:34.893Z,7.30
2018-12-21T08:14:02.255Z,7.30
2018-12-21T08:16:29.397Z,7.30
2018-12-21T08:18:56.525Z,7.30
2018-12-21T08:21:23.654Z,7.30
2018-12-21T08:23:50.824Z,7.40
2018-12-21T08:26:18.098Z,7.50
2018-12-21T08:28:45.254Z,7.40
2018-12-21T08:31:12.382Z,7.30
2018-12-21T08:33:39.490Z,7.30
2018-12-21T08:36:06.618Z,7.30
2018-12-21T08:38:33.752Z,7.30
2018-12-21T08:41:01.014Z,7.40
2018-12-21T08:43:28.179Z,7.30
2018-12-21T08:45:55.423Z,7.40
2018-12-21T08:48:22.570Z,7.50
2018-12-21T08:50:49.741Z,7.40
2018-12-21T08:53:17.133Z,7.40
2018-12-21T08:55:44.249Z,7.50
2018-12-21T08:58:11.480Z,7.50
2018-12-21T09:00:38.943Z,7.50
2018-12-21T09:03:06.090Z,7.60
2018-12-21T09:05:33.218Z,7.60
2018-12-21T09:08:00.479Z,7.60
2018-12-21T09:10:27.718Z,7.60
2018-12-21T09:12:54.895Z,7.60
2018-12-21T09:15:22.146Z,7.60
2018-12-21T09:17:49.415Z,7.60
2018-12-21T09:20:16.537Z,7.60
2018-12-21T09:22:43.678Z,7.60
2018-12-21T09:25:10.819Z,7.60
2018-12-21T09:27:38.121Z,7.60
2018-12-21T09:30:10.130Z,7.50
2018-12-21T09:32:37.411Z,7.60
2018-12-21T09:35:05.002Z,7.60
2018-12-21T09:37:32.254Z,7.60
2018-12-21T09:39:59.382Z,7.60
2018-12-21T09:42:26.502Z,7.70
2018-12-21T09:44:53.932Z,7.70
2018-12-21T09:47:21.078Z,7.70
2018-12-21T09:49:48.215Z,7.70
2018-12-21T09:52:15.422Z,7.80
2018-12-21T09:54:42.657Z,7.80
2018-12-21T09:57:09.784Z,7.80
2018-12-21T09:59:36.920Z,7.90
2018-12-21T10:02:04.098Z,7.90
2018-12-21T10:04:31.232Z,8.00
2018-12-21T10:06:58.475Z,8.10
2018-12-21T10:09:25.606Z,8.10
2018-12-21T10:11:52.766Z,8.20
2018-12-21T10:14:19.912Z,8.20
2018-12-21T10:16:47.041Z,8.30
2018-12-21T10:19:14.311Z,8.30
2018-12-21T10:21:48.262Z,8.30
2018-12-21T10:24:18.661Z,8.40
2018-12-21T10:26:44.535Z,8.40
2018-12-21T10:29:11.680Z,8.40
2018-12-21T10:31:38.943Z,8.50
2018-12-21T10:34:06.083Z,8.50
2018-12-21T10:36:33.223Z,8.50
2018-12-21T10:39:00.454Z,8.50
2018-12-21T10:41:27.989Z,8.50
2018-12-21T10:43:55.118Z,8.50
2018-12-21T10:46:22.467Z,8.50
2018-12-21T10:48:49.610Z,8.50
2018-12-21T10:51:16.751Z,8.60
2018-12-21T10:53:46.702Z,8.60
2018-12-21T10:56:13.060Z,8.60
2018-12-21T10:58:40.186Z,8.70
2018-12-21T11:01:07.326Z,8.80
2018-12-21T11:03:34.490Z,8.70
2018-12-21T11:06:01.716Z,8.80
2018-12-21T11:08:28.882Z,8.80
2018-12-21T11:10:56.019Z,8.80
2018-12-21T11:13:23.161Z,9.10
2018-12-21T11:15:50.315Z,9.10
2018-12-21T11:18:17.577Z,9.00
2018-12-21T11:20:44.705Z,9.10
2018-12-21T11:23:11.851Z,9.40
2018-12-21T11:25:39.023Z,9.50
2018-12-21T11:28:06.275Z,9.70
2018-12-21T11:30:33.521Z,9.80
2018-12-21T11:33:00.650Z,10.10
2018-12-21T11:35:27.764Z,10.20
2018-12-21T11:37:54.894Z,10.40
2018-12-21T11:40:22.056Z,10.40
2018-12-21T11:42:49.317Z,10.50
2018-12-21T11:45:16.467Z,10.60
2018-12-21T11:47:43.627Z,10.70
2018-12-21T11:50:11.230Z,10.70
2018-12-21T11:52:38.542Z,10.70
2018-12-21T11:55:05.835Z,10.70
2018-12-21T11:57:32.988Z,10.60
2018-12-21T12:00:00.189Z,10.40
2018-12-21T12:02:27.383Z,10.40
2018-12-21T12:04:54.498Z,10.50
2018-12-21T12:07:21.614Z,10.50
2018-12-21T12:09:48.770Z,10.70
2018-12-21T12:12:15.940Z,10.60
2018-12-21T12:14:43.079Z,10.70
2018-12-21T12:17:10.287Z,10.70
2018-12-21T12:19:37.422Z,10.80
2018-12-21T12:22:04.671Z,10.80
2018-12-21T12:24:31.942Z,10.80
2018-12-21T12:26:59.199Z,10.90
2018-12-21T12:29:26.352Z,11.10
2018-12-21T12:31:53.467Z,11.00
2018-12-21T12:34:20.762Z,10.90
2018-12-21T12:36:48.006Z,11.00
2018-12-21T12:39:15.126Z,11.00
2018-12-21T12:41:42.250Z,11.00
2018-12-21T12:44:09.401Z,11.00
2018-12-21T12:46:36.830Z,11.00
2018-12-21T12:49:03.971Z,11.20
2018-12-21T12:51:31.123Z,11.10
2018-12-21T12:53:58.406Z,11.20
2018-12-21T12:56:25.650Z,11.30
2018-12-21T12:58:52.900Z,11.30
2018-12-21T13:01:20.335Z,11.30
2018-12-21T13:03:47.566Z,11.40
2018-12-21T13:06:14.779Z,11.30
2018-12-21T13:08:41.963Z,11.30
2018-12-21T13:11:09.218Z,11.30
2018-12-21T13:13:36.368Z,11.30
2018-12-21T13:16:03.667Z,11.30
2018-12-21T13:18:30.805Z,11.30
2018-12-21T13:20:58.071Z,11.30
2018-12-21T13:23:25.197Z,11.40
2018-12-21T13:25:52.342Z,11.30
2018-12-21T13:28:19.490Z,11.30
2018-12-21T13:30:46.612Z,11.40
2018-12-21T13:33:14.519Z,11.50
2018-12-21T13:38:15.778Z,11.60
2018-12-21T13:40:42.922Z,11.50
2018-12-21T13:43:10.029Z,11.30
2018-12-21T13:45:37.140Z,11.30
2018-12-21T13:48:04.378Z,11.50
2018-12-21T13:50:31.680Z,11.60
2018-12-21T13:52:58.878Z,11.50
2018-12-21T13:55:26.018Z,11.60
2018-12-21T13:57:53.409Z,11.60
2018-12-21T14:00:20.648Z,11.60
2018-12-21T14:02:47.767Z,11.50
2018-12-21T14:05:15.125Z,11.60
2018-12-21T14:07:42.256Z,11.50
2018-12-21T14:10:11.241Z,11.50
2018-12-21T14:12:38.669Z,11.50
2018-12-21T14:15:06.783Z,11.50
2018-12-21T14:17:34.083Z,11.50
2018-12-21T14:20:01.319Z,11.50
2018-12-21T14:22:28.477Z,11.50
2018-12-21T14:24:55.614Z,11.50
2018-12-21T14:27:22.777Z,11.40
2018-12-21T14:32:32.871Z,11.30
2018-12-21T14:35:00.292Z,11.30
2018-12-21T14:37:27.778Z,11.20
2018-12-21T14:39:55.006Z,11.20
2018-12-21T14:42:22.171Z,11.10
2018-12-21T14:44:49.460Z,11.10
2018-12-21T14:47:17.046Z,11.00
2018-12-21T14:49:44.183Z,11.10
2018-12-21T14:52:11.395Z,11.00
2018-12-21T14:54:38.534Z,11.10
2018-12-21T14:57:05.692Z,11.00
2018-12-21T14:59:33.033Z,10.90
2018-12-21T15:02:00.407Z,10.80
2018-12-21T15:04:27.661Z,10.80
2018-12-21T15:06:54.785Z,10.80
2018-12-21T15:09:22.078Z,10.70
2018-12-21T15:11:49.288Z,10.80
2018-12-21T15:14:16.450Z,10.80
2018-12-21T15:16:43.938Z,10.90
2018-12-21T15:19:11.170Z,10.90
2018-12-21T15:21:38.779Z,10.80
2018-12-21T15:24:06.131Z,10.80
2018-12-21T15:26:33.275Z,10.90
2018-12-21T15:29:00.422Z,10.90
2018-12-21T15:31:27.866Z,10.90
2018-12-21T15:33:55.010Z,10.90
2018-12-21T15:36:22.158Z,11.00
2018-12-21T15:38:49.298Z,11.10
2018-12-21T15:41:16.535Z,11.10
2018-12-21T15:43:43.794Z,11.10
2018-12-21T15:46:10.949Z,11.20
2018-12-21T15:48:38.091Z,11.20
2018-12-21T15:51:05.359Z,11.20
2018-12-21T15:53:32.596Z,11.20
2018-12-21T15:55:59.743Z,11.20
2018-12-21T15:58:26.897Z,11.20
2018-12-21T16:00:54.290Z,11.20
2018-12-21T16:03:21.495Z,11.20
2018-12-21T16:05:48.658Z,11.20
2018-12-21T16:08:15.795Z,11.20
2018-12-21T16:10:42.959Z,11.20
2018-12-21T16:13:10.186Z,11.20
2018-12-21T16:15:37.565Z,11.10
2018-12-21T16:18:04.955Z,11.00
2018-12-21T16:20:32.082Z,11.00
2018-12-21T16:22:59.432Z,11.00
2018-12-21T16:25:26.578Z,11.10
2018-12-21T16:27:53.703Z,11.10
2018-12-21T16:30:21.238Z,11.20
2018-12-21T16:32:48.395Z,11.30
2018-12-21T16:35:15.731Z,11.20
2018-12-21T16:37:42.867Z,11.30
2018-12-21T16:40:10.611Z,11.20
2018-12-21T16:42:37.874Z,11.20
2018-12-21T16:45:07.833Z,11.20
2018-12-21T16:47:34.967Z,11.20
2018-12-21T16:50:02.281Z,11.20
2018-12-21T16:52:29.539Z,11.30
2018-12-21T16:54:56.778Z,11.30
2018-12-21T16:57:23.914Z,11.40
2018-12-21T16:59:51.461Z,11.30
2018-12-21T17:02:18.720Z,11.30
2018-12-21T17:04:46.104Z,11.30
2018-12-21T17:07:13.238Z,11.20
2018-12-21T17:09:40.374Z,11.30
2018-12-21T17:12:07.557Z,11.20
2018-12-21T17:14:34.752Z,11.30
2018-12-21T17:17:01.886Z,11.20
2018-12-21T17:19:29.057Z,11.30
2018-12-21T17:21:56.322Z,11.30
2018-12-21T17:24:23.695Z,11.30
2018-12-21T17:26:51.455Z,11.30
2018-12-21T17:29:18.568Z,11.30
2018-12-21T17:31:45.803Z,11.30
2018-12-21T17:34:12.966Z,11.30
2018-12-21T17:36:40.226Z,11.30
2018-12-21T17:39:07.793Z,11.40
2018-12-21T17:41:34.935Z,11.40
2018-12-21T17:44:02.146Z,11.50
2018-12-21T17:46:29.291Z,11.50
2018-12-21T17:48:56.414Z,11.60
2018-12-21T17:51:23.610Z,11.60
2018-12-21T17:53:50.748Z,11.60
2018-12-21T17:56:17.890Z,11.60
2018-12-21T17:58:51.766Z,11.70
2018-12-21T18:01:19.146Z,11.70
2018-12-21T18:04:20.481Z,11.70
2018-12-21T18:06:47.606Z,11.70
2018-12-21T18:09:15.091Z,11.60
2018-12-21T18:11:42.258Z,11.60
2018-12-21T18:14:09.423Z,11.60
2018-12-21T18:16:36.555Z,11.50
2018-12-21T18:20:07.758Z,11.50
2018-12-21T18:22:35.414Z,11.60
2018-12-21T18:25:07.712Z,11.50
2018-12-21T18:27:35.594Z,11.60
2018-12-21T18:30:05.891Z,11.60
2018-12-21T18:32:36.479Z,11.60
2018-12-21T18:35:06.854Z,11.40
2018-12-21T18:37:39.739Z,11.40
2018-12-21T18:40:08.213Z,11.30
2018-12-21T18:42:35.549Z,11.30
2018-12-21T18:45:03.002Z,11.30
2018-12-21T18:47:30.137Z,11.30
2018-12-21T18:49:57.362Z,11.30
2018-12-21T18:52:24.494Z,11.30
2018-12-21T18:54:51.763Z,11.30
2018-12-21T18:57:20.067Z,11.20
2018-12-21T18:59:47.355Z,11.30
2018-12-21T19:02:14.512Z,11.30
2018-12-21T19:04:41.650Z,11.30
2018-12-21T19:07:08.770Z,11.30
2018-12-21T19:09:36.014Z,11.30
2018-12-21T19:12:03.167Z,11.20
2018-12-21T19:14:30.310Z,11.30
2018-12-21T19:16:57.654Z,11.40
2018-12-21T19:19:24.892Z,11.40
2018-12-21T19:21:52.190Z,11.60
2018-12-21T19:24:19.355Z,11.50
2018-12-21T19:26:46.647Z,11.50
2018-12-21T19:29:13.786Z,11.60
2018-12-21T19:31:41.400Z,11.50
2018-12-21T19:34:08.663Z,11.60
2018-12-21T19:36:35.825Z,11.50
2018-12-21T19:39:06.148Z,11.50
2018-12-21T19:41:33.382Z,11.50
2018-12-21T19:44:00.535Z,11.40
2018-12-21T19:46:27.889Z,11.50
2018-12-21T19:48:55.045Z,11.40
2018-12-21T19:51:22.420Z,11.30
2018-12-21T19:53:49.550Z,11.50
2018-12-21T19:56:25.103Z,11.40
2018-12-21T19:58:52.258Z,11.40
2018-12-21T20:01:19.507Z,11.30
2018-12-21T20:03:46.737Z,11.30
2018-12-21T20:06:13.894Z,11.30
2018-12-21T20:08:41.242Z,11.20
2018-12-21T20:11:08.568Z,11.10
2018-12-21T20:13:35.854Z,11.10
2018-12-21T20:16:03.127Z,11.10
2018-12-21T20:18:30.262Z,11.10
2018-12-21T20:20:57.405Z,11.10
2018-12-21T20:23:24.542Z,11.10
2018-12-21T20:25:51.708Z,11.10
2018-12-21T20:28:19.764Z,11.10
2018-12-21T20:30:50.086Z,11.10
2018-12-21T20:33:17.210Z,11.10
2018-12-21T20:35:44.475Z,11.00
2018-12-21T20:38:11.747Z,11.00
2018-12-21T20:40:39.238Z,11.00
2018-12-21T20:43:07.026Z,11.00
2018-12-21T20:45:34.331Z,11.00
2018-12-21T20:48:01.464Z,11.10
2018-12-21T20:50:28.706Z,11.00
2018-12-21T20:52:55.853Z,11.00
2018-12-21T20:55:23.148Z,11.00
2018-12-21T20:57:53.824Z,11.00
2018-12-21T21:00:20.962Z,11.10
2018-12-21T21:02:48.166Z,11.00
2018-12-21T21:05:15.298Z,11.00
2018-12-21T21:07:42.441Z,10.90
2018-12-21T21:10:11.161Z,11.00
2018-12-21T21:12:38.782Z,10.90
2018-12-21T21:15:07.883Z,11.00
2018-12-21T21:17:35.018Z,11.00
2018-12-21T21:20:02.689Z,11.00
2018-12-21T21:22:29.887Z,11.00
2018-12-21T21:24:57.029Z,11.00
2018-12-21T21:27:30.356Z,11.30
2018-12-21T21:29:53.471Z,11.30
2018-12-21T21:32:20.614Z,11.20
2018-12-21T21:34:47.799Z,11.10
2018-12-21T21:37:15.031Z,11.00
2018-12-21T21:39:42.553Z,10.90
2018-12-21T21:42:11.977Z,10.90
2018-12-21T21:44:39.226Z,10.90
2018-12-21T21:47:06.459Z,10.80
2018-12-21T21:49:34.178Z,10.80
2018-12-21T21:52:01.514Z,10.80
2018-12-21T21:54:28.658Z,10.80
2018-12-21T21:56:55.851Z,10.70
2018-12-21T21:59:23.771Z,10.70
2018-12-21T22:01:50.934Z,10.70
2018-12-21T22:04:18.195Z,10.60
2018-12-21T22:06:45.453Z,10.60
2018-12-21T22:09:12.843Z,10.50
2018-12-21T22:11:39.978Z,10.50
2018-12-21T22:14:07.228Z,10.40
2018-12-21T22:16:34.386Z,10.30
2018-12-21T22:19:01.696Z,10.30
2018-12-21T22:21:35.726Z,10.20
2018-12-21T22:24:02.893Z,10.20
2018-12-21T22:26:30.085Z,10.20
2018-12-21T22:28:57.275Z,10.10
2018-12-21T22:31:24.407Z,10.00
2018-12-21T22:33:51.537Z,10.00
2018-12-21T22:36:18.847Z,10.00
2018-12-21T22:38:46.007Z,10.00
2018-12-21T22:41:13.138Z,10.10
2018-12-21T22:43:40.578Z,10.10
2018-12-21T22:46:07.715Z,10.20
2018-12-21T22:48:34.864Z,10.20
2018-12-21T22:51:02.122Z,10.20
2018-12-21T22:53:29.266Z,10.20
2018-12-21T22:55:56.381Z,10.20
2018-12-21T22:58:23.592Z,10.20
2018-12-21T23:00:50.836Z,10.10
2018-12-21T23:03:18.062Z,10.20
2018-12-21T23:05:45.322Z,10.20
2018-12-21T23:08:12.479Z,10.20
2018-12-21T23:10:39.637Z,10.20
2018-12-21T23:13:06.951Z,10.20
2018-12-21T23:15:34.088Z,10.20
2018-12-21T23:18:01.240Z,10.20
2018-12-21T23:20:28.600Z,10.20
2018-12-21T23:22:55.799Z,10.20
2018-12-21T23:25:23.050Z,10.30
2018-12-21T23:28:04.806Z,10.30
2018-12-21T23:30:26.100Z,10.20
2018-12-21T23:32:53.247Z,10.30
2018-12-21T23:35:20.446Z,10.30
2018-12-21T23:37:47.586Z,10.30
2018-12-21T23:40:15.495Z,10.30
2018-12-21T23:42:42.751Z,10.40
2018-12-21T23:45:09.890Z,10.40
2018-12-21T23:47:37.011Z,10.40
2018-12-21T23:50:05.097Z,10.40
2018-12-21T23:52:32.330Z,10.40
2018-12-21T23:54:59.474Z,10.40
2018-12-21T23:57:26.611Z,10.40
2018-12-21T23:59:53.868Z,10.50
